Portada
METAR-TAF:

METAR-TAF

Aeropuertos :

Aeropuerto de Sevilla

Sevilla, España

latitud: 37-25N, longitud: 005-54W, altitud: 34 m

Observación

El informe se hizo hace 10 minutos, a las 15:30 UTC
Viento 3 kt del suroeste
Temperatura 35°C
Humedad 30%
Presión 1013 hPa
Visibilidad 10 km o más
sin nubes por debajo de 1500 m y sin presencia de cumulonimbus.

METAR: LEZL 171530Z 22003KT CAVOK 35/15 Q1013 NOSIG

Hora: 17:40 (15:40 UTC)

Pronóstico

El informe se hizo hace 1 hora y 40 minutos, a las 14:00 UTC
Pronóstico válido del 17 a las 15 UTC al 18 a las 15 UTC
Viento 7 kt del suroeste
Visibilidad 10 km o más
sin nubes por debajo de 1500 m y sin presencia de cumulonimbus.
Evolucionando progresivamente
del 18 a las 12 UTC al 18 a las 14 UTC
Viento 10 kt del este

TAF: LEZL 171400Z 1715/1815 22007KT CAVOK TX35/1715Z TN21/1805Z BECMG 1812/1814 09010KT

Observaciones y pronósticos meteorológicos de más de 4000 aeropuertos (mensajes METAR y TAF).

Los puntos amarillos y rojos representan las estaciones disponibles.

Ponga el ratón en el punto deseado para ver el nombre de la estación.

Haga clic para ver las observaciones y los pronósticos meteorológicos.

Para cambiar el mapa : haga clic en los botones verdes con una cruz de color negro para hacer un zoom, en el botón verde con un guión para alejar o en las flechas verdes para mapas adyacentes.


METAR-TAF: